sensor_id;sensor_type;location;lat;lon;timestamp;P1;durP1;ratioP1;P2;durP2;ratioP2
75135;SDS011;63707;52.212;9.540;2023-04-07T00:00:53;24.27;;;11.75;;
75135;SDS011;63707;52.212;9.540;2023-04-07T00:03:20;24.75;;;11.77;;
75135;SDS011;63707;52.212;9.540;2023-04-07T00:05:45;23.52;;;11.23;;
75135;SDS011;63707;52.212;9.540;2023-04-07T00:08:11;24.02;;;11.30;;
75135;SDS011;63707;52.212;9.540;2023-04-07T00:10:37;26.80;;;12.05;;
75135;SDS011;63707;52.212;9.540;2023-04-07T00:13:02;23.58;;;11.45;;
75135;SDS011;63707;52.212;9.540;2023-04-07T00:15:28;24.10;;;11.25;;
75135;SDS011;63707;52.212;9.540;2023-04-07T00:17:53;23.90;;;11.63;;
75135;SDS011;63707;52.212;9.540;2023-04-07T00:20:20;23.73;;;11.73;;
75135;SDS011;63707;52.212;9.540;2023-04-07T00:22:46;22.33;;;10.63;;
75135;SDS011;63707;52.212;9.540;2023-04-07T00:25:12;22.73;;;11.27;;
75135;SDS011;63707;52.212;9.540;2023-04-07T00:27:37;20.70;;;10.75;;
75135;SDS011;63707;52.212;9.540;2023-04-07T00:30:03;24.40;;;11.32;;
75135;SDS011;63707;52.212;9.540;2023-04-07T00:32:29;21.80;;;11.38;;
75135;SDS011;63707;52.212;9.540;2023-04-07T00:34:55;22.65;;;11.75;;
75135;SDS011;63707;52.212;9.540;2023-04-07T00:37:22;24.27;;;11.73;;
75135;SDS011;63707;52.212;9.540;2023-04-07T00:39:49;25.13;;;11.95;;
75135;SDS011;63707;52.212;9.540;2023-04-07T00:42:15;22.73;;;11.13;;
75135;SDS011;63707;52.212;9.540;2023-04-07T00:44:41;25.77;;;12.20;;
75135;SDS011;63707;52.212;9.540;2023-04-07T00:47:06;22.10;;;10.93;;
75135;SDS011;63707;52.212;9.540;2023-04-07T00:49:32;24.42;;;12.00;;
75135;SDS011;63707;52.212;9.540;2023-04-07T00:51:58;27.33;;;11.50;;
75135;SDS011;63707;52.212;9.540;2023-04-07T00:54:25;20.95;;;10.98;;
75135;SDS011;63707;52.212;9.540;2023-04-07T00:56:51;23.15;;;11.77;;
75135;SDS011;63707;52.212;9.540;2023-04-07T00:59:17;23.50;;;11.10;;
75135;SDS011;63707;52.212;9.540;2023-04-07T01:01:43;27.20;;;12.57;;
75135;SDS011;63707;52.212;9.540;2023-04-07T01:04:15;22.63;;;11.65;;
75135;SDS011;63707;52.212;9.540;2023-04-07T01:06:52;23.25;;;11.85;;
75135;SDS011;63707;52.212;9.540;2023-04-07T01:09:24;22.30;;;10.90;;
75135;SDS011;63707;52.212;9.540;2023-04-07T01:11:56;22.13;;;10.93;;
75135;SDS011;63707;52.212;9.540;2023-04-07T01:14:30;24.95;;;12.40;;
75135;SDS011;63707;52.212;9.540;2023-04-07T01:17:00;24.65;;;12.82;;
75135;SDS011;63707;52.212;9.540;2023-04-07T01:19:31;23.45;;;12.07;;
75135;SDS011;63707;52.212;9.540;2023-04-07T01:22:00;22.48;;;11.75;;
75135;SDS011;63707;52.212;9.540;2023-04-07T01:24:57;24.27;;;12.52;;
75135;SDS011;63707;52.212;9.540;2023-04-07T01:27:42;25.48;;;13.52;;
75135;SDS011;63707;52.212;9.540;2023-04-07T01:30:19;25.55;;;12.32;;
75135;SDS011;63707;52.212;9.540;2023-04-07T01:32:49;23.10;;;11.90;;
75135;SDS011;63707;52.212;9.540;2023-04-07T01:35:17;29.27;;;12.73;;
75135;SDS011;63707;52.212;9.540;2023-04-07T01:37:44;25.15;;;11.85;;
75135;SDS011;63707;52.212;9.540;2023-04-07T01:40:12;26.63;;;12.30;;
75135;SDS011;63707;52.212;9.540;2023-04-07T01:42:39;22.90;;;11.70;;
75135;SDS011;63707;52.212;9.540;2023-04-07T01:45:07;24.20;;;12.45;;
75135;SDS011;63707;52.212;9.540;2023-04-07T01:47:35;24.88;;;12.02;;
75135;SDS011;63707;52.212;9.540;2023-04-07T01:50:03;24.48;;;12.35;;
75135;SDS011;63707;52.212;9.540;2023-04-07T01:52:30;24.83;;;12.13;;
75135;SDS011;63707;52.212;9.540;2023-04-07T01:54:56;25.83;;;11.88;;
75135;SDS011;63707;52.212;9.540;2023-04-07T01:57:21;26.35;;;11.35;;
75135;SDS011;63707;52.212;9.540;2023-04-07T01:59:47;22.35;;;11.23;;
75135;SDS011;63707;52.212;9.540;2023-04-07T02:02:12;22.95;;;12.05;;
75135;SDS011;63707;52.212;9.540;2023-04-07T02:04:42;27.00;;;13.00;;
75135;SDS011;63707;52.212;9.540;2023-04-07T02:07:17;26.00;;;11.25;;
75135;SDS011;63707;52.212;9.540;2023-04-07T02:09:45;24.90;;;12.68;;
75135;SDS011;63707;52.212;9.540;2023-04-07T02:12:12;23.77;;;12.07;;
75135;SDS011;63707;52.212;9.540;2023-04-07T02:14:39;23.00;;;12.43;;
75135;SDS011;63707;52.212;9.540;2023-04-07T02:17:06;26.70;;;11.90;;
75135;SDS011;63707;52.212;9.540;2023-04-07T02:19:33;25.67;;;12.63;;
75135;SDS011;63707;52.212;9.540;2023-04-07T02:22:01;25.33;;;12.13;;
75135;SDS011;63707;52.212;9.540;2023-04-07T02:24:27;25.52;;;12.70;;
75135;SDS011;63707;52.212;9.540;2023-04-07T02:26:53;22.80;;;12.02;;
75135;SDS011;63707;52.212;9.540;2023-04-07T02:29:18;27.52;;;13.52;;
75135;SDS011;63707;52.212;9.540;2023-04-07T02:31:44;26.30;;;13.25;;
75135;SDS011;63707;52.212;9.540;2023-04-07T02:34:09;24.23;;;12.80;;
75135;SDS011;63707;52.212;9.540;2023-04-07T02:36:35;23.95;;;12.52;;
75135;SDS011;63707;52.212;9.540;2023-04-07T02:39:02;24.90;;;13.30;;
75135;SDS011;63707;52.212;9.540;2023-04-07T02:41:27;22.83;;;12.55;;
75135;SDS011;63707;52.212;9.540;2023-04-07T02:43:53;27.75;;;13.95;;
75135;SDS011;63707;52.212;9.540;2023-04-07T02:46:18;27.63;;;13.68;;
75135;SDS011;63707;52.212;9.540;2023-04-07T02:48:44;25.05;;;13.05;;
75135;SDS011;63707;52.212;9.540;2023-04-07T02:51:09;23.85;;;13.20;;
75135;SDS011;63707;52.212;9.540;2023-04-07T02:53:35;25.02;;;12.95;;
75135;SDS011;63707;52.212;9.540;2023-04-07T02:56:02;23.63;;;12.27;;
75135;SDS011;63707;52.212;9.540;2023-04-07T02:58:28;24.25;;;12.05;;
75135;SDS011;63707;52.212;9.540;2023-04-07T03:00:53;24.10;;;12.25;;
75135;SDS011;63707;52.212;9.540;2023-04-07T03:03:19;23.23;;;12.23;;
75135;SDS011;63707;52.212;9.540;2023-04-07T03:05:44;27.05;;;13.43;;
75135;SDS011;63707;52.212;9.540;2023-04-07T03:08:10;25.45;;;13.32;;
75135;SDS011;63707;52.212;9.540;2023-04-07T03:10:35;23.55;;;11.20;;
75135;SDS011;63707;52.212;9.540;2023-04-07T03:13:02;23.92;;;12.70;;
75135;SDS011;63707;52.212;9.540;2023-04-07T03:15:28;24.67;;;13.05;;
75135;SDS011;63707;52.212;9.540;2023-04-07T03:17:53;22.63;;;12.40;;
75135;SDS011;63707;52.212;9.540;2023-04-07T03:20:19;27.55;;;13.88;;
75135;SDS011;63707;52.212;9.540;2023-04-07T03:22:44;25.92;;;12.88;;
75135;SDS011;63707;52.212;9.540;2023-04-07T03:25:11;22.13;;;12.30;;
75135;SDS011;63707;52.212;9.540;2023-04-07T03:27:36;23.92;;;13.43;;
75135;SDS011;63707;52.212;9.540;2023-04-07T03:30:04;26.10;;;13.05;;
75135;SDS011;63707;52.212;9.540;2023-04-07T03:32:31;25.42;;;12.77;;
75135;SDS011;63707;52.212;9.540;2023-04-07T03:34:56;25.40;;;12.60;;
75135;SDS011;63707;52.212;9.540;2023-04-07T03:37:21;21.80;;;11.77;;
75135;SDS011;63707;52.212;9.540;2023-04-07T03:39:47;22.80;;;12.73;;
75135;SDS011;63707;52.212;9.540;2023-04-07T03:42:12;22.98;;;11.82;;
75135;SDS011;63707;52.212;9.540;2023-04-07T03:44:38;23.33;;;12.55;;
75135;SDS011;63707;52.212;9.540;2023-04-07T03:47:05;23.00;;;12.00;;
75135;SDS011;63707;52.212;9.540;2023-04-07T03:49:30;24.90;;;12.52;;
75135;SDS011;63707;52.212;9.540;2023-04-07T03:51:56;23.05;;;12.27;;
75135;SDS011;63707;52.212;9.540;2023-04-07T03:54:22;26.25;;;12.40;;
75135;SDS011;63707;52.212;9.540;2023-04-07T03:56:47;26.00;;;12.18;;
75135;SDS011;63707;52.212;9.540;2023-04-07T03:59:13;20.92;;;11.15;;
75135;SDS011;63707;52.212;9.540;2023-04-07T04:01:39;28.80;;;12.77;;
75135;SDS011;63707;52.212;9.540;2023-04-07T04:04:06;23.80;;;12.57;;
75135;SDS011;63707;52.212;9.540;2023-04-07T04:06:31;22.25;;;12.35;;
75135;SDS011;63707;52.212;9.540;2023-04-07T04:08:57;25.67;;;13.07;;
75135;SDS011;63707;52.212;9.540;2023-04-07T04:11:22;25.50;;;13.50;;
75135;SDS011;63707;52.212;9.540;2023-04-07T04:13:48;26.77;;;13.93;;
75135;SDS011;63707;52.212;9.540;2023-04-07T04:16:13;26.40;;;13.13;;
75135;SDS011;63707;52.212;9.540;2023-04-07T04:18:38;28.67;;;14.45;;
75135;SDS011;63707;52.212;9.540;2023-04-07T04:21:05;25.55;;;13.32;;
75135;SDS011;63707;52.212;9.540;2023-04-07T04:23:32;28.63;;;13.80;;
75135;SDS011;63707;52.212;9.540;2023-04-07T04:25:57;26.80;;;14.32;;
75135;SDS011;63707;52.212;9.540;2023-04-07T04:28:24;29.05;;;14.48;;
75135;SDS011;63707;52.212;9.540;2023-04-07T04:30:49;28.45;;;15.77;;
75135;SDS011;63707;52.212;9.540;2023-04-07T04:33:15;29.02;;;15.40;;
75135;SDS011;63707;52.212;9.540;2023-04-07T04:35:40;27.73;;;15.80;;
75135;SDS011;63707;52.212;9.540;2023-04-07T04:38:07;28.38;;;14.43;;
75135;SDS011;63707;52.212;9.540;2023-04-07T04:40:32;26.90;;;14.18;;
75135;SDS011;63707;52.212;9.540;2023-04-07T04:42:58;29.52;;;14.48;;
75135;SDS011;63707;52.212;9.540;2023-04-07T04:45:23;29.55;;;15.60;;
75135;SDS011;63707;52.212;9.540;2023-04-07T04:47:49;26.60;;;14.68;;
75135;SDS011;63707;52.212;9.540;2023-04-07T04:50:15;27.40;;;14.70;;
75135;SDS011;63707;52.212;9.540;2023-04-07T04:52:40;29.25;;;15.30;;
75135;SDS011;63707;52.212;9.540;2023-04-07T04:55:08;25.38;;;14.88;;
75135;SDS011;63707;52.212;9.540;2023-04-07T04:57:34;29.50;;;14.50;;
75135;SDS011;63707;52.212;9.540;2023-04-07T05:00:00;31.42;;;15.32;;
75135;SDS011;63707;52.212;9.540;2023-04-07T05:02:26;29.65;;;15.52;;
75135;SDS011;63707;52.212;9.540;2023-04-07T05:04:51;28.55;;;15.00;;
75135;SDS011;63707;52.212;9.540;2023-04-07T05:07:17;27.98;;;14.93;;
75135;SDS011;63707;52.212;9.540;2023-04-07T05:09:42;28.30;;;15.07;;
75135;SDS011;63707;52.212;9.540;2023-04-07T05:12:09;29.08;;;13.80;;
75135;SDS011;63707;52.212;9.540;2023-04-07T05:14:34;28.48;;;14.15;;
75135;SDS011;63707;52.212;9.540;2023-04-07T05:17:00;26.65;;;13.68;;
75135;SDS011;63707;52.212;9.540;2023-04-07T05:19:25;28.35;;;14.52;;
75135;SDS011;63707;52.212;9.540;2023-04-07T05:21:53;30.83;;;14.05;;
75135;SDS011;63707;52.212;9.540;2023-04-07T05:24:19;25.05;;;13.68;;
75135;SDS011;63707;52.212;9.540;2023-04-07T05:26:44;23.50;;;14.00;;
75135;SDS011;63707;52.212;9.540;2023-04-07T05:29:11;28.02;;;14.10;;
75135;SDS011;63707;52.212;9.540;2023-04-07T05:31:36;24.75;;;13.13;;
75135;SDS011;63707;52.212;9.540;2023-04-07T05:34:04;24.60;;;13.30;;
75135;SDS011;63707;52.212;9.540;2023-04-07T05:36:29;23.05;;;12.77;;
75135;SDS011;63707;52.212;9.540;2023-04-07T05:38:55;21.45;;;12.50;;
75135;SDS011;63707;52.212;9.540;2023-04-07T05:41:21;25.00;;;12.57;;
75135;SDS011;63707;52.212;9.540;2023-04-07T05:43:46;22.75;;;11.82;;
75135;SDS011;63707;52.212;9.540;2023-04-07T05:46:13;23.63;;;13.02;;
75135;SDS011;63707;52.212;9.540;2023-04-07T05:48:39;22.27;;;13.27;;
75135;SDS011;63707;52.212;9.540;2023-04-07T05:51:05;26.45;;;14.43;;
75135;SDS011;63707;52.212;9.540;2023-04-07T05:53:30;26.58;;;14.15;;
75135;SDS011;63707;52.212;9.540;2023-04-07T05:55:55;32.65;;;17.77;;
75135;SDS011;63707;52.212;9.540;2023-04-07T05:58:21;29.10;;;16.13;;
75135;SDS011;63707;52.212;9.540;2023-04-07T06:00:46;23.98;;;14.05;;
75135;SDS011;63707;52.212;9.540;2023-04-07T06:03:13;25.60;;;14.63;;
75135;SDS011;63707;52.212;9.540;2023-04-07T06:05:39;24.98;;;14.32;;
75135;SDS011;63707;52.212;9.540;2023-04-07T06:08:07;24.92;;;14.23;;
75135;SDS011;63707;52.212;9.540;2023-04-07T06:10:32;28.42;;;13.88;;
75135;SDS011;63707;52.212;9.540;2023-04-07T06:12:58;24.92;;;12.85;;
75135;SDS011;63707;52.212;9.540;2023-04-07T06:15:23;22.50;;;12.05;;
75135;SDS011;63707;52.212;9.540;2023-04-07T06:17:49;23.38;;;13.07;;
75135;SDS011;63707;52.212;9.540;2023-04-07T06:20:16;20.90;;;12.30;;
75135;SDS011;63707;52.212;9.540;2023-04-07T06:22:42;23.58;;;13.82;;
75135;SDS011;63707;52.212;9.540;2023-04-07T06:25:07;20.27;;;11.57;;
75135;SDS011;63707;52.212;9.540;2023-04-07T06:27:34;18.95;;;11.50;;
75135;SDS011;63707;52.212;9.540;2023-04-07T06:30:00;18.88;;;11.07;;
75135;SDS011;63707;52.212;9.540;2023-04-07T06:32:25;18.27;;;11.82;;
75135;SDS011;63707;52.212;9.540;2023-04-07T06:34:51;18.92;;;12.05;;
75135;SDS011;63707;52.212;9.540;2023-04-07T06:37:17;20.00;;;11.98;;
75135;SDS011;63707;52.212;9.540;2023-04-07T06:39:43;19.75;;;11.18;;
75135;SDS011;63707;52.212;9.540;2023-04-07T06:42:09;19.73;;;12.30;;
75135;SDS011;63707;52.212;9.540;2023-04-07T06:44:34;19.20;;;12.15;;
75135;SDS011;63707;52.212;9.540;2023-04-07T06:47:00;17.63;;;12.00;;
75135;SDS011;63707;52.212;9.540;2023-04-07T06:49:25;19.73;;;11.68;;
75135;SDS011;63707;52.212;9.540;2023-04-07T06:51:51;15.93;;;11.48;;
75135;SDS011;63707;52.212;9.540;2023-04-07T06:54:18;16.02;;;10.80;;
75135;SDS011;63707;52.212;9.540;2023-04-07T06:56:43;19.02;;;11.80;;
75135;SDS011;63707;52.212;9.540;2023-04-07T06:59:10;15.90;;;11.30;;
75135;SDS011;63707;52.212;9.540;2023-04-07T07:01:35;17.02;;;11.15;;
75135;SDS011;63707;52.212;9.540;2023-04-07T07:04:01;16.10;;;11.60;;
75135;SDS011;63707;52.212;9.540;2023-04-07T07:06:27;19.15;;;11.63;;
75135;SDS011;63707;52.212;9.540;2023-04-07T07:08:52;14.48;;;11.05;;
75135;SDS011;63707;52.212;9.540;2023-04-07T07:11:19;18.92;;;12.55;;
75135;SDS011;63707;52.212;9.540;2023-04-07T07:13:46;16.20;;;11.77;;
75135;SDS011;63707;52.212;9.540;2023-04-07T07:16:12;17.58;;;11.80;;
75135;SDS011;63707;52.212;9.540;2023-04-07T07:18:37;19.02;;;12.32;;
75135;SDS011;63707;52.212;9.540;2023-04-07T07:21:03;19.88;;;12.13;;
75135;SDS011;63707;52.212;9.540;2023-04-07T07:23:28;17.98;;;11.65;;
75135;SDS011;63707;52.212;9.540;2023-04-07T07:25:54;16.20;;;12.02;;
75135;SDS011;63707;52.212;9.540;2023-04-07T07:28:21;19.17;;;12.50;;
75135;SDS011;63707;52.212;9.540;2023-04-07T07:30:47;18.60;;;11.98;;
75135;SDS011;63707;52.212;9.540;2023-04-07T07:33:13;18.77;;;12.20;;
75135;SDS011;63707;52.212;9.540;2023-04-07T07:35:38;16.70;;;12.02;;
75135;SDS011;63707;52.212;9.540;2023-04-07T07:38:04;17.73;;;11.90;;
75135;SDS011;63707;52.212;9.540;2023-04-07T07:40:30;19.23;;;12.60;;
75135;SDS011;63707;52.212;9.540;2023-04-07T07:42:56;20.38;;;13.23;;
75135;SDS011;63707;52.212;9.540;2023-04-07T07:45:23;20.48;;;12.65;;
75135;SDS011;63707;52.212;9.540;2023-04-07T07:47:48;20.73;;;12.73;;
75135;SDS011;63707;52.212;9.540;2023-04-07T07:50:14;19.63;;;12.60;;
75135;SDS011;63707;52.212;9.540;2023-04-07T07:52:40;19.75;;;12.20;;
75135;SDS011;63707;52.212;9.540;2023-04-07T07:55:05;21.45;;;13.38;;
75135;SDS011;63707;52.212;9.540;2023-04-07T07:57:31;20.70;;;13.55;;
75135;SDS011;63707;52.212;9.540;2023-04-07T07:59:57;20.58;;;12.60;;
75135;SDS011;63707;52.212;9.540;2023-04-07T08:02:23;18.70;;;12.98;;
75135;SDS011;63707;52.212;9.540;2023-04-07T08:04:54;19.60;;;13.20;;
75135;SDS011;63707;52.212;9.540;2023-04-07T08:07:20;19.20;;;12.55;;
75135;SDS011;63707;52.212;9.540;2023-04-07T08:09:45;21.20;;;12.73;;
75135;SDS011;63707;52.212;9.540;2023-04-07T08:12:11;20.10;;;12.73;;
75135;SDS011;63707;52.212;9.540;2023-04-07T08:14:36;18.33;;;12.13;;
75135;SDS011;63707;52.212;9.540;2023-04-07T08:17:02;21.10;;;12.27;;
75135;SDS011;63707;52.212;9.540;2023-04-07T08:19:29;17.60;;;11.65;;
75135;SDS011;63707;52.212;9.540;2023-04-07T08:21:54;21.75;;;13.10;;
75135;SDS011;63707;52.212;9.540;2023-04-07T08:24:20;19.45;;;12.60;;
75135;SDS011;63707;52.212;9.540;2023-04-07T08:26:45;19.75;;;12.73;;
75135;SDS011;63707;52.212;9.540;2023-04-07T08:29:11;21.38;;;13.38;;
75135;SDS011;63707;52.212;9.540;2023-04-07T08:31:36;21.88;;;13.25;;
75135;SDS011;63707;52.212;9.540;2023-04-07T08:34:02;23.80;;;14.23;;
75135;SDS011;63707;52.212;9.540;2023-04-07T08:36:29;22.60;;;14.15;;
75135;SDS011;63707;52.212;9.540;2023-04-07T08:38:55;18.90;;;13.63;;
75135;SDS011;63707;52.212;9.540;2023-04-07T08:41:23;21.98;;;14.15;;
75135;SDS011;63707;52.212;9.540;2023-04-07T08:43:52;21.30;;;14.38;;
75135;SDS011;63707;52.212;9.540;2023-04-07T08:46:18;21.83;;;14.82;;
75135;SDS011;63707;52.212;9.540;2023-04-07T08:48:46;21.00;;;14.43;;
75135;SDS011;63707;52.212;9.540;2023-04-07T08:51:15;23.48;;;14.93;;
75135;SDS011;63707;52.212;9.540;2023-04-07T08:53:52;22.13;;;14.18;;
75135;SDS011;63707;52.212;9.540;2023-04-07T08:56:22;21.23;;;14.88;;
75135;SDS011;63707;52.212;9.540;2023-04-07T08:58:48;20.05;;;14.27;;
75135;SDS011;63707;52.212;9.540;2023-04-07T09:01:14;19.88;;;14.57;;
75135;SDS011;63707;52.212;9.540;2023-04-07T09:03:40;21.98;;;14.13;;
75135;SDS011;63707;52.212;9.540;2023-04-07T09:06:06;25.05;;;15.00;;
75135;SDS011;63707;52.212;9.540;2023-04-07T09:08:34;19.98;;;14.15;;
75135;SDS011;63707;52.212;9.540;2023-04-07T09:11:02;21.70;;;14.57;;
75135;SDS011;63707;52.212;9.540;2023-04-07T09:13:27;20.85;;;13.95;;
75135;SDS011;63707;52.212;9.540;2023-04-07T09:15:53;17.33;;;13.25;;
75135;SDS011;63707;52.212;9.540;2023-04-07T09:18:18;21.98;;;14.88;;
75135;SDS011;63707;52.212;9.540;2023-04-07T09:20:54;20.25;;;14.35;;
75135;SDS011;63707;52.212;9.540;2023-04-07T09:23:26;19.48;;;13.43;;
75135;SDS011;63707;52.212;9.540;2023-04-07T09:25:55;22.95;;;13.95;;
75135;SDS011;63707;52.212;9.540;2023-04-07T09:28:25;20.27;;;15.25;;
75135;SDS011;63707;52.212;9.540;2023-04-07T09:31:02;22.95;;;13.80;;
75135;SDS011;63707;52.212;9.540;2023-04-07T09:33:28;21.77;;;13.70;;
75135;SDS011;63707;52.212;9.540;2023-04-07T09:35:54;22.48;;;13.63;;
75135;SDS011;63707;52.212;9.540;2023-04-07T09:38:20;19.20;;;13.05;;
75135;SDS011;63707;52.212;9.540;2023-04-07T09:40:45;18.35;;;13.38;;
75135;SDS011;63707;52.212;9.540;2023-04-07T09:43:14;18.55;;;12.85;;
75135;SDS011;63707;52.212;9.540;2023-04-07T09:45:42;17.63;;;13.10;;
75135;SDS011;63707;52.212;9.540;2023-04-07T09:48:16;17.95;;;12.80;;
75135;SDS011;63707;52.212;9.540;2023-04-07T09:50:44;18.48;;;13.00;;
75135;SDS011;63707;52.212;9.540;2023-04-07T09:53:13;18.33;;;12.90;;
75135;SDS011;63707;52.212;9.540;2023-04-07T09:55:39;18.80;;;12.82;;
75135;SDS011;63707;52.212;9.540;2023-04-07T09:58:05;17.90;;;12.10;;
75135;SDS011;63707;52.212;9.540;2023-04-07T10:00:32;17.20;;;11.90;;
75135;SDS011;63707;52.212;9.540;2023-04-07T10:03:00;18.20;;;12.07;;
75135;SDS011;63707;52.212;9.540;2023-04-07T10:05:27;16.08;;;11.45;;
75135;SDS011;63707;52.212;9.540;2023-04-07T10:07:53;16.35;;;11.20;;
75135;SDS011;63707;52.212;9.540;2023-04-07T10:10:19;17.17;;;11.93;;
75135;SDS011;63707;52.212;9.540;2023-04-07T10:12:44;20.15;;;11.60;;
75135;SDS011;63707;52.212;9.540;2023-04-07T10:15:12;18.85;;;11.18;;
75135;SDS011;63707;52.212;9.540;2023-04-07T10:17:43;17.35;;;11.40;;
75135;SDS011;63707;52.212;9.540;2023-04-07T10:20:12;17.20;;;11.43;;
75135;SDS011;63707;52.212;9.540;2023-04-07T10:22:40;14.95;;;10.00;;
75135;SDS011;63707;52.212;9.540;2023-04-07T10:25:08;17.50;;;10.75;;
75135;SDS011;63707;52.212;9.540;2023-04-07T10:27:37;16.60;;;11.07;;
75135;SDS011;63707;52.212;9.540;2023-04-07T10:30:14;17.02;;;10.30;;
75135;SDS011;63707;52.212;9.540;2023-04-07T10:32:45;18.08;;;10.80;;
75135;SDS011;63707;52.212;9.540;2023-04-07T10:35:13;14.38;;;9.38;;
75135;SDS011;63707;52.212;9.540;2023-04-07T10:37:38;15.70;;;9.35;;
75135;SDS011;63707;52.212;9.540;2023-04-07T10:42:52;14.70;;;9.48;;
75135;SDS011;63707;52.212;9.540;2023-04-07T10:45:17;14.80;;;9.82;;
75135;SDS011;63707;52.212;9.540;2023-04-07T10:48:20;14.80;;;9.82;;
75135;SDS011;63707;52.212;9.540;2023-04-07T10:51:10;12.43;;;9.10;;
75135;SDS011;63707;52.212;9.540;2023-04-07T10:53:38;15.02;;;9.52;;
75135;SDS011;63707;52.212;9.540;2023-04-07T10:57:04;17.02;;;9.55;;
75135;SDS011;63707;52.212;9.540;2023-04-07T10:59:34;15.07;;;9.07;;
75135;SDS011;63707;52.212;9.540;2023-04-07T11:05:02;14.82;;;9.27;;
75135;SDS011;63707;52.212;9.540;2023-04-07T11:07:45;15.60;;;9.60;;
75135;SDS011;63707;52.212;9.540;2023-04-07T11:10:14;14.27;;;10.20;;
75135;SDS011;63707;52.212;9.540;2023-04-07T11:12:40;15.57;;;9.52;;
75135;SDS011;63707;52.212;9.540;2023-04-07T11:15:16;13.00;;;8.63;;
75135;SDS011;63707;52.212;9.540;2023-04-07T11:17:43;11.90;;;9.05;;
75135;SDS011;63707;52.212;9.540;2023-04-07T11:20:08;15.20;;;9.63;;
75135;SDS011;63707;52.212;9.540;2023-04-07T11:22:34;15.80;;;9.90;;
75135;SDS011;63707;52.212;9.540;2023-04-07T11:25:02;17.38;;;10.13;;
75135;SDS011;63707;52.212;9.540;2023-04-07T11:27:44;14.45;;;9.38;;
75135;SDS011;63707;52.212;9.540;2023-04-07T11:30:10;15.90;;;9.63;;
75135;SDS011;63707;52.212;9.540;2023-04-07T11:32:36;16.33;;;9.70;;
75135;SDS011;63707;52.212;9.540;2023-04-07T11:35:04;13.88;;;8.93;;
75135;SDS011;63707;52.212;9.540;2023-04-07T11:37:30;14.43;;;9.75;;
75135;SDS011;63707;52.212;9.540;2023-04-07T11:39:57;16.23;;;9.48;;
75135;SDS011;63707;52.212;9.540;2023-04-07T11:42:33;16.70;;;10.15;;
75135;SDS011;63707;52.212;9.540;2023-04-07T11:45:00;14.55;;;9.77;;
75135;SDS011;63707;52.212;9.540;2023-04-07T11:47:32;14.50;;;9.82;;
75135;SDS011;63707;52.212;9.540;2023-04-07T11:49:58;16.63;;;9.80;;
75135;SDS011;63707;52.212;9.540;2023-04-07T11:52:24;16.02;;;9.82;;
75135;SDS011;63707;52.212;9.540;2023-04-07T11:54:50;18.38;;;10.10;;
75135;SDS011;63707;52.212;9.540;2023-04-07T11:57:24;15.65;;;9.95;;
75135;SDS011;63707;52.212;9.540;2023-04-07T12:00:05;17.35;;;9.90;;
75135;SDS011;63707;52.212;9.540;2023-04-07T12:02:31;17.27;;;9.68;;
75135;SDS011;63707;52.212;9.540;2023-04-07T12:04:57;15.70;;;9.70;;
75135;SDS011;63707;52.212;9.540;2023-04-07T12:07:23;17.17;;;10.00;;
75135;SDS011;63707;52.212;9.540;2023-04-07T12:09:48;19.08;;;10.57;;
75135;SDS011;63707;52.212;9.540;2023-04-07T12:12:14;15.85;;;9.93;;
75135;SDS011;63707;52.212;9.540;2023-04-07T12:14:50;16.52;;;10.02;;
75135;SDS011;63707;52.212;9.540;2023-04-07T12:17:21;15.70;;;9.70;;
75135;SDS011;63707;52.212;9.540;2023-04-07T12:19:47;16.58;;;9.93;;
75135;SDS011;63707;52.212;9.540;2023-04-07T12:22:12;15.05;;;9.80;;
75135;SDS011;63707;52.212;9.540;2023-04-07T12:24:38;16.60;;;10.27;;
75135;SDS011;63707;52.212;9.540;2023-04-07T12:27:03;15.80;;;10.35;;
75135;SDS011;63707;52.212;9.540;2023-04-07T12:29:29;16.77;;;10.52;;
75135;SDS011;63707;52.212;9.540;2023-04-07T12:31:54;14.50;;;9.70;;
75135;SDS011;63707;52.212;9.540;2023-04-07T12:34:21;16.98;;;10.02;;
75135;SDS011;63707;52.212;9.540;2023-04-07T12:36:47;15.35;;;9.90;;
75135;SDS011;63707;52.212;9.540;2023-04-07T12:39:14;14.30;;;9.75;;
75135;SDS011;63707;52.212;9.540;2023-04-07T12:41:41;15.63;;;10.25;;
75135;SDS011;63707;52.212;9.540;2023-04-07T12:44:08;15.68;;;10.32;;
75135;SDS011;63707;52.212;9.540;2023-04-07T12:46:34;16.42;;;10.50;;
75135;SDS011;63707;52.212;9.540;2023-04-07T12:48:59;15.98;;;10.30;;
75135;SDS011;63707;52.212;9.540;2023-04-07T12:51:26;16.35;;;10.10;;
75135;SDS011;63707;52.212;9.540;2023-04-07T12:53:52;17.98;;;11.05;;
75135;SDS011;63707;52.212;9.540;2023-04-07T12:56:18;18.35;;;10.90;;
75135;SDS011;63707;52.212;9.540;2023-04-07T12:58:43;15.15;;;9.95;;
75135;SDS011;63707;52.212;9.540;2023-04-07T13:01:09;17.77;;;11.07;;
75135;SDS011;63707;52.212;9.540;2023-04-07T13:03:34;18.27;;;10.63;;
75135;SDS011;63707;52.212;9.540;2023-04-07T13:06:00;15.52;;;10.05;;
75135;SDS011;63707;52.212;9.540;2023-04-07T13:08:27;19.52;;;10.73;;
75135;SDS011;63707;52.212;9.540;2023-04-07T13:10:53;16.48;;;10.43;;
75135;SDS011;63707;52.212;9.540;2023-04-07T13:13:19;17.30;;;10.48;;
75135;SDS011;63707;52.212;9.540;2023-04-07T13:15:44;18.65;;;11.30;;
75135;SDS011;63707;52.212;9.540;2023-04-07T13:18:10;16.95;;;10.70;;
75135;SDS011;63707;52.212;9.540;2023-04-07T13:20:35;16.92;;;10.60;;
75135;SDS011;63707;52.212;9.540;2023-04-07T13:23:01;17.70;;;10.10;;
75135;SDS011;63707;52.212;9.540;2023-04-07T13:25:29;18.45;;;11.13;;
75135;SDS011;63707;52.212;9.540;2023-04-07T13:27:54;18.48;;;10.93;;
75135;SDS011;63707;52.212;9.540;2023-04-07T13:30:20;18.08;;;10.30;;
75135;SDS011;63707;52.212;9.540;2023-04-07T13:32:45;17.05;;;11.02;;
75135;SDS011;63707;52.212;9.540;2023-04-07T13:35:14;17.38;;;10.80;;
75135;SDS011;63707;52.212;9.540;2023-04-07T13:37:40;17.70;;;11.18;;
75135;SDS011;63707;52.212;9.540;2023-04-07T13:40:06;15.63;;;10.18;;
75135;SDS011;63707;52.212;9.540;2023-04-07T13:42:34;16.40;;;10.15;;
75135;SDS011;63707;52.212;9.540;2023-04-07T13:44:59;16.55;;;10.73;;
75135;SDS011;63707;52.212;9.540;2023-04-07T13:47:25;15.13;;;10.25;;
75135;SDS011;63707;52.212;9.540;2023-04-07T13:49:53;16.02;;;9.90;;
75135;SDS011;63707;52.212;9.540;2023-04-07T13:52:20;17.65;;;11.05;;
75135;SDS011;63707;52.212;9.540;2023-04-07T13:54:46;17.20;;;10.93;;
75135;SDS011;63707;52.212;9.540;2023-04-07T13:57:11;22.50;;;11.15;;
75135;SDS011;63707;52.212;9.540;2023-04-07T13:59:39;18.23;;;10.73;;
75135;SDS011;63707;52.212;9.540;2023-04-07T14:02:05;16.95;;;10.35;;
75135;SDS011;63707;52.212;9.540;2023-04-07T14:04:31;21.00;;;10.45;;
75135;SDS011;63707;52.212;9.540;2023-04-07T14:06:56;15.43;;;10.52;;
75135;SDS011;63707;52.212;9.540;2023-04-07T14:09:22;15.98;;;10.05;;
75135;SDS011;63707;52.212;9.540;2023-04-07T14:11:47;18.02;;;10.00;;
75135;SDS011;63707;52.212;9.540;2023-04-07T14:14:13;13.80;;;9.40;;
75135;SDS011;63707;52.212;9.540;2023-04-07T14:16:39;15.13;;;9.13;;
75135;SDS011;63707;52.212;9.540;2023-04-07T14:19:05;18.08;;;9.23;;
75135;SDS011;63707;52.212;9.540;2023-04-07T14:21:31;14.18;;;8.63;;
75135;SDS011;63707;52.212;9.540;2023-04-07T14:23:56;13.63;;;8.60;;
75135;SDS011;63707;52.212;9.540;2023-04-07T14:26:22;13.77;;;8.60;;
75135;SDS011;63707;52.212;9.540;2023-04-07T14:28:48;13.65;;;8.68;;